Hauptseite
METAR-TAF:

METAR-TAF

Flughäfen :

Flughafen Kassel-Calden

Kassel, Deutschland

Breite: 51-24N, Länge: 009-23E, Höhe: 277 m

Beobachtung

Neuester Wetterbericht von vor 2 Stunden und 32 Minuten, um 18:50 UTC
Wind 4 kt aus West/Südwest
Temperatur 5°C
Luftfeuchtigkeit 87%
Luftdruck 1018 hPa
Sichtweite 10 km oder mehr
Aufgelockert bewölkt in der Höhe von 4500 ft
Geschlossene Wolkendecke in der Höhe von 5500 ft

METAR: EDVK 031850Z 24004KT 9999 SCT045 OVC055 05/03 Q1018

Zeit: 23:22 (21:22 UTC)

Prognose

Neuester Wetterbericht von vor 4 Stunden und 22 Minuten, um 17:00 UTC
Gültige Prognose vom 03 um 18 UTC bis 04 um 03 UTC
Wind 5 kt aus West
Sichtweite 10 km oder mehr
Durchbrochene Bewölkung in der Höhe von 4500 ft
Übergehend zu
vom 03 um 18 UTC bis 03 um 20 UTC
Wind 3 kt aus unterschiedlichen Richtungen

TAF: EDVK 031700Z 0318/0403 27005KT 9999 BKN045 BECMG 0318/0320 VRB03KT

Wetterbeobachtungen und Prognosen von mehr als 4000 Flughäfen (METAR und TAF Bericht).

Die verfügbaren Stationen werden durch gelbe und rote Markierungen auf der Karte dargestellt.

Führen Sie die Maus auf sie, um den Namen der Station zu sehen.

Darauf klicken, um die Beobachtung von Wetterbeobachtungen und Prognosen zu sehen.

Um die Karte zu ändern : klicken Sie auf den grünen Tasten mit einem schwarzen Kreuz Zum Vergrößern, auf den grünen Button mit einem Gedankenstrich zu verkleinern, oder auf die grünen Pfeile für benachbarte Karten.


METAR-TAF: